sensor_id;sensor_type;location;lat;lon;timestamp;pressure;altitude;pressure_sealevel;temperature;humidity
55763;BME280;42162;51.958;5.426;2024-01-11T00:01:24;103274.19;;;-3.16;56.19
55763;BME280;42162;51.958;5.426;2024-01-11T00:03:51;103265.34;;;-3.21;56.25
55763;BME280;42162;51.958;5.426;2024-01-11T00:06:18;103267.88;;;-3.21;56.48
55763;BME280;42162;51.958;5.426;2024-01-11T00:08:45;103273.19;;;-3.18;56.50
55763;BME280;42162;51.958;5.426;2024-01-11T00:11:12;103269.56;;;-3.22;56.53
55763;BME280;42162;51.958;5.426;2024-01-11T00:13:43;103272.19;;;-3.20;56.56
55763;BME280;42162;51.958;5.426;2024-01-11T00:16:11;103279.06;;;-3.19;56.55
55763;BME280;42162;51.958;5.426;2024-01-11T00:18:38;103272.19;;;-3.20;56.79
55763;BME280;42162;51.958;5.426;2024-01-11T00:21:05;103272.78;;;-3.24;56.55
55763;BME280;42162;51.958;5.426;2024-01-11T00:23:32;103270.88;;;-3.27;56.76
55763;BME280;42162;51.958;5.426;2024-01-11T00:26:00;103271.56;;;-3.30;56.74
55763;BME280;42162;51.958;5.426;2024-01-11T00:28:27;103264.59;;;-3.32;56.80
55763;BME280;42162;51.958;5.426;2024-01-11T00:30:54;103265.59;;;-3.30;56.89
55763;BME280;42162;51.958;5.426;2024-01-11T00:33:21;103273.09;;;-3.32;56.90
55763;BME280;42162;51.958;5.426;2024-01-11T04:01:17;103319.78;;;-3.89;60.95
55763;BME280;42162;51.958;5.426;2024-01-11T04:03:44;103327.50;;;-3.88;61.05
55763;BME280;42162;51.958;5.426;2024-01-11T04:06:21;103320.00;;;-3.86;60.96
55763;BME280;42162;51.958;5.426;2024-01-11T04:08:50;103317.03;;;-3.80;61.14
55763;BME280;42162;51.958;5.426;2024-01-11T04:11:17;103318.91;;;-3.78;61.20
55763;BME280;42162;51.958;5.426;2024-01-11T04:13:44;103325.78;;;-3.77;61.35
55763;BME280;42162;51.958;5.426;2024-01-11T04:16:12;103329.94;;;-3.77;61.22
55763;BME280;42162;51.958;5.426;2024-01-11T04:18:39;103340.66;;;-3.81;61.31
55763;BME280;42162;51.958;5.426;2024-01-11T04:21:06;103350.84;;;-3.81;61.45
55763;BME280;42162;51.958;5.426;2024-01-11T04:23:33;103352.47;;;-3.82;61.42
55763;BME280;42162;51.958;5.426;2024-01-11T04:26:00;103335.00;;;-3.89;61.63
55763;BME280;42162;51.958;5.426;2024-01-11T04:28:27;103343.50;;;-3.89;61.60
55763;BME280;42162;51.958;5.426;2024-01-11T04:30:55;103352.03;;;-3.88;61.94
55763;BME280;42162;51.958;5.426;2024-01-11T04:33:22;103349.47;;;-3.88;61.92
55763;BME280;42162;51.958;5.426;2024-01-11T04:35:49;103350.13;;;-3.91;61.95
55763;BME280;42162;51.958;5.426;2024-01-11T04:38:16;103343.06;;;-3.95;61.94
55763;BME280;42162;51.958;5.426;2024-01-11T04:40:43;103356.75;;;-3.93;62.04
55763;BME280;42162;51.958;5.426;2024-01-11T04:43:10;103348.25;;;-3.93;62.09
55763;BME280;42162;51.958;5.426;2024-01-11T04:45:38;103353.31;;;-3.93;62.07
55763;BME280;42162;51.958;5.426;2024-01-11T04:48:05;103356.94;;;-4.01;62.19
55763;BME280;42162;51.958;5.426;2024-01-11T04:50:32;103356.59;;;-4.06;62.26
55763;BME280;42162;51.958;5.426;2024-01-11T04:52:59;103366.63;;;-4.08;62.16
55763;BME280;42162;51.958;5.426;2024-01-11T04:55:27;103370.56;;;-4.11;62.33
55763;BME280;42162;51.958;5.426;2024-01-11T04:57:54;103379.31;;;-4.08;62.41
55763;BME280;42162;51.958;5.426;2024-01-11T05:00:21;103369.94;;;-4.09;62.34
55763;BME280;42162;51.958;5.426;2024-01-11T05:02:48;103372.59;;;-4.07;62.47
55763;BME280;42162;51.958;5.426;2024-01-11T05:05:16;103367.63;;;-4.06;62.25
55763;BME280;42162;51.958;5.426;2024-01-11T05:07:43;103364.88;;;-4.09;62.44
55763;BME280;42162;51.958;5.426;2024-01-11T05:10:10;103361.31;;;-4.11;62.70
55763;BME280;42162;51.958;5.426;2024-01-11T05:12:37;103359.19;;;-4.16;62.54
55763;BME280;42162;51.958;5.426;2024-01-11T05:15:08;103354.28;;;-4.25;62.48
55763;BME280;42162;51.958;5.426;2024-01-11T05:17:35;103357.91;;;-4.34;62.68
55763;BME280;42162;51.958;5.426;2024-01-11T05:20:03;103348.31;;;-4.48;62.75
55763;BME280;42162;51.958;5.426;2024-01-11T05:22:30;103355.63;;;-4.63;62.74
55763;BME280;42162;51.958;5.426;2024-01-11T05:24:57;103346.66;;;-4.70;63.26
55763;BME280;42162;51.958;5.426;2024-01-11T05:27:24;103364.94;;;-4.74;63.51
55763;BME280;42162;51.958;5.426;2024-01-11T05:29:52;103356.31;;;-4.76;63.72
55763;BME280;42162;51.958;5.426;2024-01-11T05:32:19;103348.44;;;-4.69;63.66
55763;BME280;42162;51.958;5.426;2024-01-11T05:34:46;103350.78;;;-4.60;63.65
55763;BME280;42162;51.958;5.426;2024-01-11T05:37:13;103357.22;;;-4.53;63.62
55763;BME280;42162;51.958;5.426;2024-01-11T05:39:40;103370.91;;;-4.51;63.27
55763;BME280;42162;51.958;5.426;2024-01-11T05:42:08;103365.06;;;-4.50;63.58
55763;BME280;42162;51.958;5.426;2024-01-11T05:44:36;103359.75;;;-4.53;63.51
55763;BME280;42162;51.958;5.426;2024-01-11T05:47:03;103355.59;;;-4.53;63.53
55763;BME280;42162;51.958;5.426;2024-01-11T05:49:30;103349.75;;;-4.52;63.45
55763;BME280;42162;51.958;5.426;2024-01-11T05:51:57;103348.63;;;-4.55;63.51
55763;BME280;42162;51.958;5.426;2024-01-11T05:54:24;103348.22;;;-4.50;63.88
55763;BME280;42162;51.958;5.426;2024-01-11T05:56:53;103369.09;;;-4.42;63.86
55763;BME280;42162;51.958;5.426;2024-01-11T05:59:23;103374.56;;;-4.37;63.74
55763;BME280;42162;51.958;5.426;2024-01-11T06:01:50;103366.97;;;-4.47;63.56
55763;BME280;42162;51.958;5.426;2024-01-11T06:04:17;103360.81;;;-4.61;63.65
55763;BME280;42162;51.958;5.426;2024-01-11T06:06:44;103364.13;;;-4.62;63.85
55763;BME280;42162;51.958;5.426;2024-01-11T06:09:11;103367.91;;;-4.57;64.07
55763;BME280;42162;51.958;5.426;2024-01-11T06:11:39;103370.25;;;-4.49;64.03
55763;BME280;42162;51.958;5.426;2024-01-11T06:14:07;103375.13;;;-4.52;64.11
55763;BME280;42162;51.958;5.426;2024-01-11T06:16:34;103382.94;;;-4.49;64.19
55763;BME280;42162;51.958;5.426;2024-01-11T06:19:01;103393.69;;;-4.41;64.07
55763;BME280;42162;51.958;5.426;2024-01-11T06:21:28;103393.28;;;-4.35;64.17
55763;BME280;42162;51.958;5.426;2024-01-11T06:23:55;103397.09;;;-4.30;64.00
55763;BME280;42162;51.958;5.426;2024-01-11T06:26:22;103411.81;;;-4.26;64.00
55763;BME280;42162;51.958;5.426;2024-01-11T06:28:50;103411.56;;;-4.29;64.01
55763;BME280;42162;51.958;5.426;2024-01-11T06:31:17;103402.06;;;-4.31;64.19
55763;BME280;42162;51.958;5.426;2024-01-11T06:33:45;103408.00;;;-4.31;64.22
55763;BME280;42162;51.958;5.426;2024-01-11T06:36:17;103422.84;;;-4.25;64.54
55763;BME280;42162;51.958;5.426;2024-01-11T06:38:46;103445.28;;;-4.20;64.17
55763;BME280;42162;51.958;5.426;2024-01-11T06:41:14;103451.91;;;-4.32;64.24
55763;BME280;42162;51.958;5.426;2024-01-11T06:43:41;103460.44;;;-4.42;64.48
55763;BME280;42162;51.958;5.426;2024-01-11T06:46:08;103457.28;;;-4.39;64.96
55763;BME280;42162;51.958;5.426;2024-01-11T06:48:37;103443.94;;;-4.37;64.86
55763;BME280;42162;51.958;5.426;2024-01-11T06:51:07;103443.44;;;-4.32;64.90
55763;BME280;42162;51.958;5.426;2024-01-11T06:53:36;103441.13;;;-4.29;65.03
55763;BME280;42162;51.958;5.426;2024-01-11T06:56:13;103425.78;;;-4.31;65.07
55763;BME280;42162;51.958;5.426;2024-01-11T06:58:40;103444.66;;;-4.27;65.07
55763;BME280;42162;51.958;5.426;2024-01-11T07:01:07;103437.19;;;-4.26;65.01
55763;BME280;42162;51.958;5.426;2024-01-11T07:03:34;103448.97;;;-4.26;64.89
55763;BME280;42162;51.958;5.426;2024-01-11T07:06:02;103445.31;;;-4.30;65.08
55763;BME280;42162;51.958;5.426;2024-01-11T07:08:31;103447.84;;;-4.30;65.21
55763;BME280;42162;51.958;5.426;2024-01-11T07:11:02;103451.25;;;-4.29;65.06
55763;BME280;42162;51.958;5.426;2024-01-11T07:13:30;103463.84;;;-4.31;65.18
55763;BME280;42162;51.958;5.426;2024-01-11T07:15:58;103458.53;;;-4.34;65.07
55763;BME280;42162;51.958;5.426;2024-01-11T07:18:25;103465.91;;;-4.37;65.30
55763;BME280;42162;51.958;5.426;2024-01-11T07:20:56;103464.53;;;-4.44;65.46
55763;BME280;42162;51.958;5.426;2024-01-11T07:23:23;103469.22;;;-4.49;65.47
55763;BME280;42162;51.958;5.426;2024-01-11T07:25:51;103459.47;;;-4.54;65.49
55763;BME280;42162;51.958;5.426;2024-01-11T07:28:18;103443.38;;;-4.55;65.49
55763;BME280;42162;51.958;5.426;2024-01-11T07:30:46;103449.47;;;-4.53;65.90
55763;BME280;42162;51.958;5.426;2024-01-11T07:33:13;103442.09;;;-4.50;65.82
55763;BME280;42162;51.958;5.426;2024-01-11T07:35:41;103434.72;;;-4.46;65.87
55763;BME280;42162;51.958;5.426;2024-01-11T07:38:08;103428.22;;;-4.43;65.51
55763;BME280;42162;51.958;5.426;2024-01-11T07:40:35;103430.66;;;-4.44;65.48
55763;BME280;42162;51.958;5.426;2024-01-11T07:43:04;103424.81;;;-4.43;65.50
55763;BME280;42162;51.958;5.426;2024-01-11T07:45:32;103425.81;;;-4.41;65.54
55763;BME280;42162;51.958;5.426;2024-01-11T07:47:59;103423.16;;;-4.43;65.62
55763;BME280;42162;51.958;5.426;2024-01-11T07:50:27;103418.22;;;-4.41;65.79
55763;BME280;42162;51.958;5.426;2024-01-11T07:52:54;103426.06;;;-4.38;65.55
55763;BME280;42162;51.958;5.426;2024-01-11T07:55:23;103431.38;;;-4.35;65.60
55763;BME280;42162;51.958;5.426;2024-01-11T07:57:51;103441.66;;;-4.34;65.87
55763;BME280;42162;51.958;5.426;2024-01-11T08:00:18;103438.34;;;-4.32;65.43
55763;BME280;42162;51.958;5.426;2024-01-11T08:02:45;103430.97;;;-4.29;65.53
55763;BME280;42162;51.958;5.426;2024-01-11T08:05:12;103439.59;;;-4.27;65.89
55763;BME280;42162;51.958;5.426;2024-01-11T08:07:39;103448.22;;;-4.25;65.59
55763;BME280;42162;51.958;5.426;2024-01-11T08:10:09;103431.22;;;-4.26;65.81
55763;BME280;42162;51.958;5.426;2024-01-11T08:12:36;103430.34;;;-4.27;65.75
55763;BME280;42162;51.958;5.426;2024-01-11T08:15:04;103431.31;;;-4.25;65.88
55763;BME280;42162;51.958;5.426;2024-01-11T08:17:31;103422.94;;;-4.24;65.88
55763;BME280;42162;51.958;5.426;2024-01-11T08:19:59;103420.66;;;-4.21;65.80
55763;BME280;42162;51.958;5.426;2024-01-11T08:22:26;103418.22;;;-4.19;66.20
55763;BME280;42162;51.958;5.426;2024-01-11T08:24:55;103434.47;;;-4.17;66.21
55763;BME280;42162;51.958;5.426;2024-01-11T08:27:22;103442.63;;;-4.21;66.17
55763;BME280;42162;51.958;5.426;2024-01-11T08:29:53;103442.06;;;-4.17;66.25
55763;BME280;42162;51.958;5.426;2024-01-11T08:32:20;103438.31;;;-4.22;66.18
55763;BME280;42162;51.958;5.426;2024-01-11T08:34:57;103437.66;;;-4.20;66.12
55763;BME280;42162;51.958;5.426;2024-01-11T08:37:25;103428.50;;;-4.18;66.16
55763;BME280;42162;51.958;5.426;2024-01-11T08:39:52;103433.19;;;-4.12;66.46
55763;BME280;42162;51.958;5.426;2024-01-11T08:42:19;103437.06;;;-4.05;66.46
55763;BME280;42162;51.958;5.426;2024-01-11T08:44:46;103441.59;;;-4.01;66.22
55763;BME280;42162;51.958;5.426;2024-01-11T08:47:14;103455.06;;;-4.02;66.25
55763;BME280;42162;51.958;5.426;2024-01-11T08:49:42;103458.50;;;-4.01;66.17
55763;BME280;42162;51.958;5.426;2024-01-11T08:52:09;103452.00;;;-3.98;66.22
55763;BME280;42162;51.958;5.426;2024-01-11T08:54:36;103459.88;;;-3.95;66.70
55763;BME280;42162;51.958;5.426;2024-01-11T08:57:04;103468.09;;;-3.87;66.26
55763;BME280;42162;51.958;5.426;2024-01-11T08:59:31;103484.69;;;-3.80;66.15
55763;BME280;42162;51.958;5.426;2024-01-11T09:01:59;103491.00;;;-3.19;66.34
55763;BME280;42162;51.958;5.426;2024-01-11T09:04:40;103497.81;;;-1.75;65.83
55763;BME280;42162;51.958;5.426;2024-01-11T09:07:08;103494.88;;;-0.38;64.60
55763;BME280;42162;51.958;5.426;2024-01-11T09:09:35;103495.53;;;0.71;62.56
55763;BME280;42162;51.958;5.426;2024-01-11T09:12:18;103495.84;;;1.67;61.68
55763;BME280;42162;51.958;5.426;2024-01-11T09:14:47;103511.00;;;2.44;60.60
55763;BME280;42162;51.958;5.426;2024-01-11T09:17:14;103515.31;;;3.13;59.62
55763;BME280;42162;51.958;5.426;2024-01-11T09:19:44;103511.13;;;3.69;58.62
55763;BME280;42162;51.958;5.426;2024-01-11T09:22:11;103512.38;;;4.15;58.00
55763;BME280;42162;51.958;5.426;2024-01-11T09:24:39;103519.50;;;4.60;57.61
55763;BME280;42162;51.958;5.426;2024-01-11T09:27:06;103519.06;;;4.70;57.11
55763;BME280;42162;51.958;5.426;2024-01-11T09:29:33;103513.72;;;4.07;57.21
55763;BME280;42162;51.958;5.426;2024-01-11T09:32:01;103518.13;;;3.01;57.21
55763;BME280;42162;51.958;5.426;2024-01-11T09:34:28;103508.00;;;2.03;57.91
55763;BME280;42162;51.958;5.426;2024-01-11T09:36:55;103508.34;;;1.31;58.43
55763;BME280;42162;51.958;5.426;2024-01-11T09:39:26;103509.09;;;0.70;59.55
55763;BME280;42162;51.958;5.426;2024-01-11T09:42:08;103513.09;;;0.08;59.40
55763;BME280;42162;51.958;5.426;2024-01-11T09:44:39;103524.63;;;-0.39;60.08
55763;BME280;42162;51.958;5.426;2024-01-11T09:47:10;103512.66;;;-0.67;60.92
55763;BME280;42162;51.958;5.426;2024-01-11T09:49:43;103517.94;;;-0.77;61.28
55763;BME280;42162;51.958;5.426;2024-01-11T09:52:12;103523.59;;;-0.95;61.31
55763;BME280;42162;51.958;5.426;2024-01-11T09:54:42;103533.09;;;-1.05;61.56
55763;BME280;42162;51.958;5.426;2024-01-11T09:57:09;103530.25;;;-1.10;61.58
55763;BME280;42162;51.958;5.426;2024-01-11T09:59:37;103537.38;;;-1.18;61.78
55763;BME280;42162;51.958;5.426;2024-01-11T10:02:07;103540.56;;;-1.34;61.85
55763;BME280;42162;51.958;5.426;2024-01-11T10:04:36;103550.22;;;-1.42;62.30
55763;BME280;42162;51.958;5.426;2024-01-11T10:07:04;103551.56;;;-1.47;62.38
55763;BME280;42162;51.958;5.426;2024-01-11T10:09:33;103555.59;;;-1.50;62.64
55763;BME280;42162;51.958;5.426;2024-01-11T10:12:00;103556.03;;;-1.56;62.58
55763;BME280;42162;51.958;5.426;2024-01-11T10:14:27;103553.19;;;-1.61;62.68
55763;BME280;42162;51.958;5.426;2024-01-11T10:16:54;103557.06;;;-1.66;62.75
55763;BME280;42162;51.958;5.426;2024-01-11T10:19:22;103550.22;;;-1.67;62.92
55763;BME280;42162;51.958;5.426;2024-01-11T10:21:49;103544.69;;;-1.73;63.18
55763;BME280;42162;51.958;5.426;2024-01-11T10:24:18;103553.88;;;-1.75;63.38
55763;BME280;42162;51.958;5.426;2024-01-11T10:26:45;103557.97;;;-1.77;63.48
55763;BME280;42162;51.958;5.426;2024-01-11T10:29:13;103546.91;;;-1.78;63.52
55763;BME280;42162;51.958;5.426;2024-01-11T10:31:40;103554.00;;;-1.74;63.88
55763;BME280;42162;51.958;5.426;2024-01-11T10:34:07;103546.53;;;-1.71;64.12
55763;BME280;42162;51.958;5.426;2024-01-11T10:36:35;103546.66;;;-1.69;64.13
55763;BME280;42162;51.958;5.426;2024-01-11T10:39:03;103559.28;;;-1.71;64.55
55763;BME280;42162;51.958;5.426;2024-01-11T10:41:41;103554.97;;;-1.72;64.67
55763;BME280;42162;51.958;5.426;2024-01-11T10:44:18;103555.66;;;-1.74;65.40
55763;BME280;42162;51.958;5.426;2024-01-11T10:46:49;103549.56;;;-1.76;65.48
55763;BME280;42162;51.958;5.426;2024-01-11T10:49:19;103555.09;;;-1.70;66.04
55763;BME280;42162;51.958;5.426;2024-01-11T10:51:57;103546.81;;;-1.79;66.65
55763;BME280;42162;51.958;5.426;2024-01-11T10:54:27;103546.69;;;-1.81;66.61
55763;BME280;42162;51.958;5.426;2024-01-11T10:56:55;103553.78;;;-1.77;67.07
55763;BME280;42162;51.958;5.426;2024-01-11T10:59:23;103547.69;;;-1.79;67.36
55763;BME280;42162;51.958;5.426;2024-01-11T11:01:57;103554.31;;;-1.81;67.71
55763;BME280;42162;51.958;5.426;2024-01-11T11:04:25;103550.91;;;-1.81;67.94
55763;BME280;42162;51.958;5.426;2024-01-11T11:06:56;103563.06;;;-1.77;68.20
55763;BME280;42162;51.958;5.426;2024-01-11T11:09:26;103568.16;;;-1.77;68.69
55763;BME280;42162;51.958;5.426;2024-01-11T11:11:58;103563.28;;;-1.74;68.42
55763;BME280;42162;51.958;5.426;2024-01-11T11:14:25;103571.16;;;-1.71;68.57
55763;BME280;42162;51.958;5.426;2024-01-11T11:16:52;103572.34;;;-1.66;68.77
55763;BME280;42162;51.958;5.426;2024-01-11T11:19:20;103583.44;;;-1.65;69.09
55763;BME280;42162;51.958;5.426;2024-01-11T11:21:48;103587.31;;;-1.71;69.26
55763;BME280;42162;51.958;5.426;2024-01-11T11:24:16;103593.19;;;-1.72;69.40
55763;BME280;42162;51.958;5.426;2024-01-11T11:26:43;103602.84;;;-1.67;69.83
55763;BME280;42162;51.958;5.426;2024-01-11T11:29:11;103594.75;;;-1.62;70.15
55763;BME280;42162;51.958;5.426;2024-01-11T11:31:45;103598.69;;;-1.53;70.15
55763;BME280;42162;51.958;5.426;2024-01-11T11:34:14;103586.50;;;-1.46;70.21
55763;BME280;42162;51.958;5.426;2024-01-11T11:36:45;103588.72;;;-1.38;70.46
55763;BME280;42162;51.958;5.426;2024-01-11T11:39:13;103586.56;;;-1.32;70.42
55763;BME280;42162;51.958;5.426;2024-01-11T11:41:41;103585.09;;;-1.29;70.62
55763;BME280;42162;51.958;5.426;2024-01-11T11:44:12;103571.66;;;-1.26;70.71
55763;BME280;42162;51.958;5.426;2024-01-11T11:46:42;103565.13;;;-1.22;70.82
55763;BME280;42162;51.958;5.426;2024-01-11T11:49:10;103557.88;;;-1.16;70.96
55763;BME280;42162;51.958;5.426;2024-01-11T11:51:40;103549.84;;;-1.09;71.09
55763;BME280;42162;51.958;5.426;2024-01-11T11:54:10;103552.75;;;-1.04;71.03
55763;BME280;42162;51.958;5.426;2024-01-11T11:56:38;103544.19;;;-1.05;71.26
55763;BME280;42162;51.958;5.426;2024-01-11T11:59:06;103540.94;;;-1.02;71.29
55763;BME280;42162;51.958;5.426;2024-01-11T12:01:35;103545.09;;;-1.04;71.58
55763;BME280;42162;51.958;5.426;2024-01-11T12:04:02;103545.09;;;-1.04;71.59
55763;BME280;42162;51.958;5.426;2024-01-11T12:06:29;103549.50;;;-1.02;71.74
55763;BME280;42162;51.958;5.426;2024-01-11T12:08:57;103547.16;;;-0.99;71.96
55763;BME280;42162;51.958;5.426;2024-01-11T12:11:25;103536.25;;;-0.96;72.18
55763;BME280;42162;51.958;5.426;2024-01-11T12:13:53;103532.16;;;-0.94;72.13
55763;BME280;42162;51.958;5.426;2024-01-11T12:16:23;103540.09;;;-0.89;72.34
55763;BME280;42162;51.958;5.426;2024-01-11T12:18:51;103527.66;;;-0.85;72.44
55763;BME280;42162;51.958;5.426;2024-01-11T12:21:19;103522.94;;;-0.79;72.61
55763;BME280;42162;51.958;5.426;2024-01-11T12:23:46;103503.72;;;-0.73;72.52
55763;BME280;42162;51.958;5.426;2024-01-11T12:26:16;103500.59;;;-0.69;72.54
55763;BME280;42162;51.958;5.426;2024-01-11T12:28:50;103506.84;;;-0.64;72.65
55763;BME280;42162;51.958;5.426;2024-01-11T12:31:17;103510.59;;;-0.59;72.79
55763;BME280;42162;51.958;5.426;2024-01-11T12:33:47;103497.22;;;-0.55;72.84
55763;BME280;42162;51.958;5.426;2024-01-11T12:36:15;103501.06;;;-0.48;73.00
55763;BME280;42162;51.958;5.426;2024-01-11T12:38:47;103498.72;;;-0.45;73.13
55763;BME280;42162;51.958;5.426;2024-01-11T12:41:22;103498.13;;;-0.41;73.13
55763;BME280;42162;51.958;5.426;2024-01-11T12:43:51;103508.44;;;-0.39;72.92
55763;BME280;42162;51.958;5.426;2024-01-11T12:46:18;103500.84;;;-0.38;72.94
55763;BME280;42162;51.958;5.426;2024-01-11T12:48:46;103497.53;;;-0.37;73.14
55763;BME280;42162;51.958;5.426;2024-01-11T12:51:16;103499.38;;;-0.34;73.32
55763;BME280;42162;51.958;5.426;2024-01-11T12:53:48;103499.56;;;-0.31;73.34
55763;BME280;42162;51.958;5.426;2024-01-11T12:56:16;103496.31;;;-0.28;73.46
55763;BME280;42162;51.958;5.426;2024-01-11T12:58:45;103486.22;;;-0.27;73.46
55763;BME280;42162;51.958;5.426;2024-01-11T13:01:14;103483.75;;;-0.25;73.32
55763;BME280;42162;51.958;5.426;2024-01-11T13:03:44;103473.72;;;-0.22;73.63
55763;BME280;42162;51.958;5.426;2024-01-11T13:06:14;103473.81;;;-0.21;73.80
55763;BME280;42162;51.958;5.426;2024-01-11T13:08:42;103471.97;;;-0.23;73.77
55763;BME280;42162;51.958;5.426;2024-01-11T13:11:10;103472.84;;;-0.23;73.86
55763;BME280;42162;51.958;5.426;2024-01-11T13:13:41;103472.03;;;-0.22;74.06
55763;BME280;42162;51.958;5.426;2024-01-11T13:16:08;103467.13;;;-0.19;74.26
55763;BME280;42162;51.958;5.426;2024-01-11T13:18:41;103475.78;;;-0.17;74.12
55763;BME280;42162;51.958;5.426;2024-01-11T13:21:09;103464.88;;;-0.14;74.14
55763;BME280;42162;51.958;5.426;2024-01-11T13:23:37;103483.16;;;-0.08;74.02
55763;BME280;42162;51.958;5.426;2024-01-11T13:26:06;103467.97;;;-0.05;74.45
55763;BME280;42162;51.958;5.426;2024-01-11T13:28:33;103469.94;;;-0.01;74.32
55763;BME280;42162;51.958;5.426;2024-01-11T13:31:01;103472.50;;;-0.01;74.26
55763;BME280;42162;51.958;5.426;2024-01-11T13:33:29;103469.09;;;-0.01;74.51
55763;BME280;42162;51.958;5.426;2024-01-11T13:35:57;103466.41;;;-0.03;74.34
55763;BME280;42162;51.958;5.426;2024-01-11T13:38:24;103459.66;;;-0.02;74.66
55763;BME280;42162;51.958;5.426;2024-01-11T13:40:51;103458.06;;;0.00;74.54
55763;BME280;42162;51.958;5.426;2024-01-11T13:43:19;103461.56;;;0.02;74.79
55763;BME280;42162;51.958;5.426;2024-01-11T13:45:46;103452.97;;;0.00;74.46
55763;BME280;42162;51.958;5.426;2024-01-11T13:48:14;103460.50;;;-0.02;74.85
55763;BME280;42162;51.958;5.426;2024-01-11T13:50:41;103454.63;;;-0.01;74.82
55763;BME280;42162;51.958;5.426;2024-01-11T13:53:09;103455.50;;;0.00;75.01
55763;BME280;42162;51.958;5.426;2024-01-11T13:55:36;103457.09;;;-0.02;75.18
55763;BME280;42162;51.958;5.426;2024-01-11T13:58:07;103455.31;;;-0.03;75.14
55763;BME280;42162;51.958;5.426;2024-01-11T14:00:35;103451.19;;;-0.01;75.25
55763;BME280;42162;51.958;5.426;2024-01-11T14:03:03;103456.31;;;-0.01;75.33
55763;BME280;42162;51.958;5.426;2024-01-11T14:05:33;103447.03;;;0.01;75.31
55763;BME280;42162;51.958;5.426;2024-01-11T14:08:00;103446.34;;;0.04;75.65
55763;BME280;42162;51.958;5.426;2024-01-11T14:10:28;103448.13;;;0.05;75.28
55763;BME280;42162;51.958;5.426;2024-01-11T14:12:55;103439.56;;;0.04;75.67
55763;BME280;42162;51.958;5.426;2024-01-11T14:15:22;103442.22;;;0.06;75.77
55763;BME280;42162;51.958;5.426;2024-01-11T14:17:50;103449.00;;;0.05;75.73
55763;BME280;42162;51.958;5.426;2024-01-11T14:20:17;103442.91;;;0.03;75.84
55763;BME280;42162;51.958;5.426;2024-01-11T14:22:45;103445.38;;;0.02;75.87
55763;BME280;42162;51.958;5.426;2024-01-11T14:25:20;103442.91;;;0.03;76.15
55763;BME280;42162;51.958;5.426;2024-01-11T14:27:48;103447.22;;;0.04;76.00
55763;BME280;42162;51.958;5.426;2024-01-11T14:30:16;103435.34;;;0.05;76.17
55763;BME280;42162;51.958;5.426;2024-01-11T14:32:44;103435.44;;;0.06;76.24
55763;BME280;42162;51.958;5.426;2024-01-11T14:35:13;103433.75;;;0.07;76.07
55763;BME280;42162;51.958;5.426;2024-01-11T14:37:40;103431.31;;;0.08;76.47
55763;BME280;42162;51.958;5.426;2024-01-11T14:40:08;103434.63;;;0.07;76.41
55763;BME280;42162;51.958;5.426;2024-01-11T14:42:37;103432.16;;;0.09;76.58
55763;BME280;42162;51.958;5.426;2024-01-11T14:45:05;103431.38;;;0.10;76.34
55763;BME280;42162;51.958;5.426;2024-01-11T14:47:33;103424.69;;;0.12;76.60
55763;BME280;42162;51.958;5.426;2024-01-11T14:50:02;103420.44;;;0.12;76.50
55763;BME280;42162;51.958;5.426;2024-01-11T14:52:31;103428.13;;;0.12;76.49
55763;BME280;42162;51.958;5.426;2024-01-11T14:54:59;103422.13;;;0.12;76.78
55763;BME280;42162;51.958;5.426;2024-01-11T14:57:26;103422.06;;;0.10;76.60
55763;BME280;42162;51.958;5.426;2024-01-11T14:59:53;103425.28;;;0.08;76.77
55763;BME280;42162;51.958;5.426;2024-01-11T15:02:21;103433.94;;;0.10;76.94
55763;BME280;42162;51.958;5.426;2024-01-11T15:04:48;103423.00;;;0.12;77.02
55763;BME280;42162;51.958;5.426;2024-01-11T15:07:16;103435.00;;;0.13;76.68
55763;BME280;42162;51.958;5.426;2024-01-11T15:09:43;103428.94;;;0.11;77.10
55763;BME280;42162;51.958;5.426;2024-01-11T15:12:10;103430.59;;;0.11;77.01
55763;BME280;42162;51.958;5.426;2024-01-11T15:14:37;103438.34;;;0.12;77.23
55763;BME280;42162;51.958;5.426;2024-01-11T15:17:05;103433.22;;;0.12;77.30
55763;BME280;42162;51.958;5.426;2024-01-11T15:19:32;103426.47;;;0.13;77.33
55763;BME280;42162;51.958;5.426;2024-01-11T15:21:59;103423.97;;;0.14;77.42
55763;BME280;42162;51.958;5.426;2024-01-11T15:24:26;103423.19;;;0.15;77.33
55763;BME280;42162;51.958;5.426;2024-01-11T15:26:55;103422.50;;;0.18;77.71
55763;BME280;42162;51.958;5.426;2024-01-11T15:29:22;103417.50;;;0.20;77.61
55763;BME280;42162;51.958;5.426;2024-01-11T15:31:50;103426.94;;;0.21;77.29
55763;BME280;42162;51.958;5.426;2024-01-11T15:34:17;103432.81;;;0.20;77.56
55763;BME280;42162;51.958;5.426;2024-01-11T15:36:46;103424.25;;;0.19;77.64
55763;BME280;42162;51.958;5.426;2024-01-11T15:39:13;103419.25;;;0.21;77.68
55763;BME280;42162;51.958;5.426;2024-01-11T15:41:54;103410.69;;;0.20;77.64
55763;BME280;42162;51.958;5.426;2024-01-11T15:44:25;103419.25;;;0.21;77.61
55763;BME280;42162;51.958;5.426;2024-01-11T15:46:55;103413.25;;;0.20;77.96
55763;BME280;42162;51.958;5.426;2024-01-11T15:49:23;103419.25;;;0.21;77.91
55763;BME280;42162;51.958;5.426;2024-01-11T15:51:50;103417.50;;;0.20;77.93
55763;BME280;42162;51.958;5.426;2024-01-11T15:54:17;103413.94;;;0.18;78.06
55763;BME280;42162;51.958;5.426;2024-01-11T15:56:48;103419.84;;;0.17;78.13
55763;BME280;42162;51.958;5.426;2024-01-11T15:59:15;103418.97;;;0.16;78.27
55763;BME280;42162;51.958;5.426;2024-01-11T16:01:43;103417.22;;;0.15;78.12
55763;BME280;42162;51.958;5.426;2024-01-11T16:04:26;103423.91;;;0.13;78.19
55763;BME280;42162;51.958;5.426;2024-01-11T16:06:53;103417.88;;;0.12;78.63
55763;BME280;42162;51.958;5.426;2024-01-11T16:09:22;103426.66;;;0.16;78.60
55763;BME280;42162;51.958;5.426;2024-01-11T16:11:50;103426.66;;;0.16;78.66
55763;BME280;42162;51.958;5.426;2024-01-11T16:14:18;103422.59;;;0.20;78.83
55763;BME280;42162;51.958;5.426;2024-01-11T16:16:45;103428.78;;;0.23;78.68
55763;BME280;42162;51.958;5.426;2024-01-11T16:19:13;103431.41;;;0.25;78.88
55763;BME280;42162;51.958;5.426;2024-01-11T16:21:40;103428.25;;;0.29;78.99
55763;BME280;42162;51.958;5.426;2024-01-11T16:24:09;103404.53;;;0.32;78.83